Terminal Aerodrome Forecast
Issued by NWS Charleston, WV

Current Version | Previous Version | Graphics & Text | Print | Product List | Glossary On
Versions: 1 2 3 4 5 6 7 8 9 10 11 12 13 14 15 16 17 18 19 20 21 22
000
FTUS41 KRLX 011100
TAFEKN
TAF
KEKN 011121Z 0112/0212 00000KT P6SM OVC025
     FM011900 33007KT 6SM -SHRA VCTS BKN040CB
     FM012200 33007KT P6SM SCT045
     FM020300 00000KT 6SM BR FEW250
     FM020800 00000KT 2SM BR SKC=

USA.gov is the U.S. government's official web portal to all federal, state and local government web resources and services.